Time;durP1;ratioP1;P1;durP2;ratioP2;P2;SDS_P1;SDS_P2;PMS_P1;PMS_P2;Temp;Humidity;BMP_temperature;BMP_pressure;BME280_temperature;BME280_humidity;BME280_pressure;Samples;Min_cycle;Max_cycle;Signal;HPM_P1;HPM_P2
2023/04/03 00:01:01;;;;;;;11.18;7.32;;;;;;;-0.14;100.00;102981.63;5072451;28;20432;-79
2023/04/03 00:03:26;;;;;;;9.82;7.90;;;;;;;-0.15;100.00;102981.59;5072600;28;20035;-76
2023/04/03 00:05:51;;;;;;;11.10;8.45;;;;;;;-0.16;100.00;102992.59;5072515;28;20046;-86
2023/04/03 00:08:17;;;;;;;12.23;8.65;;;;;;;-0.13;100.00;102993.47;5072340;28;20052;-86
2023/04/03 00:10:42;;;;;;;10.93;7.53;;;;;;;-0.11;100.00;102991.81;5072306;28;20032;-85
2023/04/03 00:13:08;;;;;;;11.57;7.70;;;;;;;-0.12;100.00;102991.78;5072312;28;20028;-85
2023/04/03 00:15:34;;;;;;;13.25;8.57;;;;;;;-0.09;100.00;102999.47;5072405;28;20028;-85
2023/04/03 00:18:00;;;;;;;12.45;8.75;;;;;;;-0.04;100.00;102995.31;5072475;28;20032;-87
2023/04/03 00:20:27;;;;;;;11.52;8.60;;;;;;;-0.02;100.00;102991.97;5070613;28;20062;-86
2023/04/03 00:22:52;;;;;;;12.63;9.05;;;;;;;-0.20;100.00;102966.28;5072289;28;20500;-76
2023/04/03 00:25:18;;;;;;;11.70;8.15;;;;;;;-0.12;100.00;102985.03;5072229;28;20017;-79
2023/04/03 00:27:43;;;;;;;11.65;8.65;;;;;;;-0.33;100.00;102952.53;5072076;28;20025;-86
2023/04/03 00:30:13;;;;;;;13.13;9.15;;;;;;;-0.05;100.00;103006.31;5072441;28;20028;-86
2023/04/03 00:32:38;;;;;;;12.60;8.65;;;;;;;-0.06;100.00;102999.53;5072256;28;20025;-85
2023/04/03 00:35:04;;;;;;;10.82;8.98;;;;;;;-0.05;100.00;103008.84;5072199;28;20099;-86
2023/04/03 00:37:30;;;;;;;14.38;10.40;;;;;;;-0.01;100.00;103013.13;5072113;28;20445;-83
2023/04/03 00:39:55;;;;;;;12.55;9.07;;;;;;;-0.02;100.00;103004.66;5072060;28;20028;-79
2023/04/03 00:42:21;;;;;;;11.80;9.32;;;;;;;0.07;100.00;103009.03;5072130;28;20034;-82
2023/04/03 00:44:46;;;;;;;11.85;9.48;;;;;;;0.12;100.00;103014.19;5072241;28;20070;-78
2023/04/03 00:47:15;;;;;;;14.23;9.60;;;;;;;0.05;100.00;103014.94;5072076;28;20025;-78
2023/04/03 00:49:42;;;;;;;12.57;8.85;;;;;;;0.05;100.00;103020.88;5072108;28;20481;-76
2023/04/03 00:52:13;;;;;;;16.40;9.25;;;;;;;0.09;100.00;103020.06;5072027;28;20066;-76
2023/04/03 00:54:40;;;;;;;12.57;8.93;;;;;;;0.04;100.00;103025.91;5073573;28;20462;-76
2023/04/03 00:57:07;;;;;;;13.52;10.02;;;;;;;0.05;100.00;103027.63;5075691;28;20032;-76
2023/04/03 00:59:38;;;;;;;11.35;8.80;;;;;;;-0.29;100.00;102973.78;5075925;28;20063;-77
2023/04/03 01:02:04;;;;;;;11.60;8.47;;;;;;;-0.23;100.00;102986.53;5075946;28;20047;-77
2023/04/03 01:04:32;;;;;;;13.25;8.60;;;;;;;-0.02;100.00;103027.53;5075818;28;20489;-79
2023/04/03 01:07:02;;;;;;;12.43;9.00;;;;;;;-0.20;100.00;103001.81;5075447;28;20045;-77
2023/04/03 01:09:28;;;;;;;12.07;8.18;;;;;;;-0.08;100.00;103026.59;5075729;28;20056;-75
2023/04/03 01:11:54;;;;;;;13.55;9.27;;;;;;;-0.03;100.00;103024.97;5075390;28;20103;-78
2023/04/03 01:14:19;;;;;;;11.27;8.85;;;;;;;-0.10;100.00;103026.56;5075649;28;20381;-79
2023/04/03 01:16:54;;;;;;;12.57;8.50;;;;;;;-0.13;100.00;103028.19;5075613;28;20024;-78
2023/04/03 01:19:23;;;;;;;14.13;8.77;;;;;;;-0.25;100.00;103015.28;5075496;28;20064;-79
2023/04/03 01:22:17;;;;;;;11.73;8.73;;;;;;;-0.21;100.00;103034.81;5075585;28;20028;-79
2023/04/03 01:24:42;;;;;;;12.30;8.35;;;;;;;-0.34;100.00;103015.97;5090246;28;20044;-79
2023/04/03 01:27:10;;;;;;;12.02;8.60;;;;;;;-0.35;100.00;103006.66;5075169;28;20494;-79
2023/04/03 01:29:37;;;;;;;11.85;8.60;;;;;;;-0.17;100.00;103034.91;5075576;28;20473;-82
2023/04/03 01:32:03;;;;;;;12.00;8.73;;;;;;;-0.18;100.00;103035.72;5075132;28;20028;-79
2023/04/03 01:34:29;;;;;;;11.23;8.63;;;;;;;-0.14;100.00;103036.63;5075511;28;20394;-86
2023/04/03 01:36:55;;;;;;;12.93;8.13;;;;;;;-0.27;100.00;103022.88;5075128;28;20073;-86
2023/04/03 01:39:21;;;;;;;11.00;8.63;;;;;;;-0.21;100.00;103029.72;5075094;28;20025;-87
2023/04/03 01:41:46;;;;;;;10.18;8.38;;;;;;;-0.51;100.00;102995.38;5075111;28;20501;-85
2023/04/03 01:44:12;;;;;;;11.48;7.93;;;;;;;-0.41;100.00;103022.63;5075167;28;20166;-85
2023/04/03 01:46:37;;;;;;;12.55;8.80;;;;;;;-0.40;100.00;103031.09;5075074;28;20108;-86
2023/04/03 01:49:03;;;;;;;10.95;8.68;;;;;;;-0.34;100.00;103034.59;5075033;28;20031;-83
2023/04/03 01:51:29;;;;;;;11.52;8.32;;;;;;;-0.57;100.00;102995.28;5075142;28;20385;-87
2023/04/03 01:53:54;;;;;;;14.68;8.50;;;;;;;-0.50;100.00;103009.78;5074750;28;20062;-85
2023/04/03 01:56:20;;;;;;;11.93;8.30;;;;;;;-0.45;100.00;103013.25;5089825;28;20060;-85
2023/04/03 01:58:45;;;;;;;15.63;8.30;;;;;;;-0.33;100.00;103028.69;5074837;28;20032;-86
2023/04/03 02:01:10;;;;;;;15.68;8.27;;;;;;;-0.42;100.00;103010.75;5074829;28;20052;-85
2023/04/03 02:03:36;;;;;;;10.80;8.27;;;;;;;-0.33;100.00;103031.22;5074611;28;20425;-85
2023/04/03 02:06:02;;;;;;;12.38;8.52;;;;;;;-0.28;100.00;103033.00;5073645;28;20466;-85
2023/04/03 02:08:27;;;;;;;11.90;8.07;;;;;;;-0.48;100.00;103018.28;5074570;28;20116;-79
2023/04/03 02:10:53;;;;;;;12.02;8.23;;;;;;;-0.63;100.00;102985.88;5074870;28;20477;-77
2023/04/03 02:13:19;;;;;;;9.98;7.72;;;;;;;-0.54;100.00;103009.69;5074508;28;20021;-75
2023/04/03 02:15:45;;;;;;;15.27;8.30;;;;;;;-0.51;100.00;103019.91;5074479;28;20039;-76
2023/04/03 02:18:10;;;;;;;10.93;8.20;;;;;;;-0.43;100.00;103043.75;5074449;28;20074;-76
2023/04/03 02:20:36;;;;;;;10.80;7.78;;;;;;;-0.45;100.00;103046.25;5074021;28;20040;-76
2023/04/03 02:23:02;;;;;;;11.07;7.90;;;;;;;-0.53;100.00;103029.16;5074413;28;20020;-75
2023/04/03 02:25:27;;;;;;;12.35;7.68;;;;;;;-0.71;100.00;103011.91;5074503;28;20025;-76
2023/04/03 02:27:53;;;;;;;12.50;7.35;;;;;;;-0.49;100.00;103047.03;5074289;28;20025;-75
2023/04/03 02:30:18;;;;;;;10.43;7.70;;;;;;;-0.51;100.00;103050.34;5074407;28;20120;-75
2023/04/03 02:32:44;;;;;;;10.45;7.38;;;;;;;-0.52;100.00;103049.50;5074176;28;20017;-76
2023/04/03 02:35:11;;;;;;;9.57;7.40;;;;;;;-0.53;100.00;103052.00;5072504;28;20020;-75
2023/04/03 02:37:36;;;;;;;12.98;7.63;;;;;;;-0.53;100.00;103050.31;5074023;28;20021;-75
2023/04/03 02:40:02;;;;;;;10.43;7.50;;;;;;;-0.61;100.00;103040.03;5074120;28;20036;-75
2023/04/03 02:42:27;;;;;;;9.35;6.90;;;;;;;-0.44;100.00;103055.56;5073901;28;20023;-75
2023/04/03 02:44:52;;;;;;;10.02;7.03;;;;;;;-0.44;100.00;103063.19;5088995;28;20500;-75
2023/04/03 02:47:18;;;;;;;10.15;7.10;;;;;;;-0.45;100.00;103066.56;5073917;28;20433;-75
2023/04/03 02:49:44;;;;;;;12.25;7.78;;;;;;;-0.52;100.00;103062.19;5073616;28;20033;-76
2023/04/03 02:52:10;;;;;;;9.68;7.10;;;;;;;-0.47;100.00;103062.28;5073668;28;20024;-76
2023/04/03 02:54:35;;;;;;;11.85;6.55;;;;;;;-0.51;100.00;103063.91;5073721;28;20096;-79
2023/04/03 02:57:01;;;;;;;11.32;6.88;;;;;;;-0.53;100.00;103062.16;5073540;28;20412;-78
2023/04/03 02:59:26;;;;;;;10.48;6.65;;;;;;;-0.89;100.00;103005.66;5073485;28;20382;-76
2023/04/03 03:01:52;;;;;;;12.48;7.07;;;;;;;-0.80;100.00;103027.81;5073529;28;20024;-82
2023/04/03 03:04:17;;;;;;;11.50;6.72;;;;;;;-0.69;100.00;103038.16;5073544;28;20028;-77
2023/04/03 03:06:43;;;;;;;10.77;6.65;;;;;;;-0.53;100.00;103064.69;5073258;28;20084;-77
2023/04/03 03:09:08;;;;;;;11.95;6.80;;;;;;;-0.66;100.00;103036.56;5073417;28;20029;-77
2023/04/03 03:11:34;;;;;;;9.27;6.38;;;;;;;-0.67;100.00;103039.09;5072051;28;20028;-76
2023/04/03 03:13:59;;;;;;;11.32;7.68;;;;;;;-0.54;100.00;103055.38;5073200;28;20020;-83
2023/04/03 03:16:25;;;;;;;10.80;6.45;;;;;;;-0.63;100.00;103046.75;5073207;28;20469;-78
2023/04/03 03:18:50;;;;;;;8.10;6.20;;;;;;;-0.55;100.00;103064.69;5073156;28;20024;-81
2023/04/03 03:21:15;;;;;;;10.77;6.47;;;;;;;-0.55;100.00;103059.59;5073082;28;20222;-81
2023/04/03 03:23:41;;;;;;;9.85;5.93;;;;;;;-0.53;100.00;103064.69;5073422;28;20434;-76
2023/04/03 03:26:09;;;;;;;9.57;6.13;;;;;;;-0.60;100.00;103051.03;5073128;28;20047;-77
2023/04/03 03:28:36;;;;;;;8.93;5.65;;;;;;;-0.47;100.00;103067.38;5073003;28;20427;-76
2023/04/03 03:31:02;;;;;;;11.02;5.78;;;;;;;-0.49;100.00;103067.34;5072902;28;20060;-79
2023/04/03 03:33:28;;;;;;;10.32;5.88;;;;;;;-0.83;100.00;103021.84;5072950;28;20075;-79
2023/04/03 03:35:54;;;;;;;9.10;5.85;;;;;;;-0.57;100.00;103071.41;5073066;28;20481;-77
2023/04/03 03:38:20;;;;;;;9.35;5.72;;;;;;;-0.57;100.00;103068.88;5072918;28;20032;-76
2023/04/03 03:40:48;;;;;;;9.20;5.60;;;;;;;-0.60;100.00;103073.88;5072759;28;20085;-76
2023/04/03 03:43:13;;;;;;;10.60;5.57;;;;;;;-0.61;100.00;103077.25;5072667;28;20533;-75
2023/04/03 03:45:38;;;;;;;9.48;5.30;;;;;;;-0.78;100.00;103049.03;5072646;28;20028;-79
2023/04/03 03:48:04;;;;;;;7.35;5.10;;;;;;;-0.70;100.00;103071.97;5072818;28;20027;-76
2023/04/03 03:50:29;;;;;;;8.10;5.45;;;;;;;-0.76;100.00;103054.97;5072608;28;20021;-78
2023/04/03 03:52:55;;;;;;;10.60;5.15;;;;;;;-0.60;100.00;103084.03;5072626;28;20028;-77
2023/04/03 03:55:20;;;;;;;9.32;4.90;;;;;;;-0.63;100.00;103081.44;5073004;28;20391;-87
2023/04/03 03:57:46;;;;;;;10.93;5.47;;;;;;;-0.64;100.00;103089.88;5072558;28;20028;-87
2023/04/03 04:00:11;;;;;;;10.57;5.40;;;;;;;-0.65;100.00;103093.25;5072399;28;20112;-84
2023/04/03 04:02:37;;;;;;;9.40;4.97;;;;;;;-0.80;100.00;103065.88;5072598;28;20024;-86
2023/04/03 04:05:02;;;;;;;8.63;5.30;;;;;;;-0.73;100.00;103088.00;5072591;28;20070;-86
2023/04/03 04:07:29;;;;;;;10.75;5.35;;;;;;;-1.02;100.00;103058.66;5072202;28;20049;-86
2023/04/03 04:09:54;;;;;;;9.60;5.57;;;;;;;-0.86;100.00;103088.59;5072620;28;20402;-84
2023/04/03 04:12:20;;;;;;;9.50;5.38;;;;;;;-1.16;100.00;103051.63;5072589;28;20044;-86
2023/04/03 04:14:46;;;;;;;9.55;4.93;;;;;;;-1.15;100.00;103070.22;5072358;28;20024;-86
2023/04/03 04:17:14;;;;;;;9.88;5.20;;;;;;;-1.11;100.00;103087.22;5072394;28;20162;-86
2023/04/03 04:19:40;;;;;;;9.48;5.55;;;;;;;-1.08;100.00;103087.28;5072464;28;20473;-86
2023/04/03 04:22:05;;;;;;;9.18;5.15;;;;;;;-1.17;100.00;103082.03;5072511;28;20114;-85
2023/04/03 04:24:31;;;;;;;8.32;5.00;;;;;;;-1.21;100.00;103070.09;5072358;28;20024;-86
2023/04/03 04:26:56;;;;;;;12.00;5.30;;;;;;;-1.12;100.00;103098.19;5072135;28;20197;-85
2023/04/03 04:29:22;;;;;;;8.80;5.35;;;;;;;-1.10;100.00;103099.06;5073450;28;20047;-84
2023/04/03 04:31:47;;;;;;;10.40;5.32;;;;;;;-1.10;100.00;103093.13;5076443;28;20079;-84
2023/04/03 04:34:12;;;;;;;8.82;5.28;;;;;;;-1.09;100.00;103098.22;5076517;28;20028;-86
2023/04/03 04:36:39;;;;;;;8.38;5.60;;;;;;;-1.21;100.00;103083.63;5076508;28;20024;-84
2023/04/03 04:39:05;;;;;;;9.63;5.00;;;;;;;-1.27;100.00;103075.91;5076046;28;20021;-83
2023/04/03 04:41:30;;;;;;;8.23;5.22;;;;;;;-1.30;100.00;103080.03;5076126;28;20031;-87
2023/04/03 04:43:56;;;;;;;9.60;5.13;;;;;;;-1.23;100.00;103097.09;5076128;28;20548;-83
2023/04/03 04:46:21;;;;;;;7.57;5.00;;;;;;;-1.24;100.00;103091.16;5076252;28;20024;-85
2023/04/03 04:48:48;;;;;;;10.52;5.72;;;;;;;-1.53;100.00;103046.56;5076125;28;20107;-87
2023/04/03 04:51:13;;;;;;;9.75;5.15;;;;;;;-1.22;100.00;103098.78;5076089;28;20131;-87
2023/04/03 04:53:38;;;;;;;9.63;5.53;;;;;;;-1.14;100.00;103109.97;5076007;28;20430;-82
2023/04/03 04:56:04;;;;;;;10.05;4.88;;;;;;;-1.27;100.00;103083.50;5075769;28;20039;-86
2023/04/03 04:58:30;;;;;;;8.43;4.97;;;;;;;-1.31;100.00;103078.31;5075906;28;20029;-81
2023/04/03 05:01:13;;;;;;;9.32;4.90;;;;;;;-1.10;100.00;103110.88;5076034;28;20032;-87
2023/04/03 05:03:39;;;;;;;8.85;5.03;;;;;;;-1.24;100.00;103083.56;5075571;28;20039;-85
2023/04/03 05:06:05;;;;;;;11.27;5.05;;;;;;;-1.16;100.00;103098.94;5075669;28;20453;-85
2023/04/03 05:08:31;;;;;;;8.32;4.70;;;;;;;-1.30;100.00;103077.50;5075165;28;20048;-85
2023/04/03 05:10:56;;;;;;;9.48;5.15;;;;;;;-1.14;100.00;103112.50;5075512;28;20050;-84
2023/04/03 05:13:22;;;;;;;9.57;4.50;;;;;;;-1.18;100.00;103103.09;5075687;28;20025;-86
2023/04/03 05:15:47;;;;;;;9.40;5.00;;;;;;;-1.07;100.00;103119.44;5075453;28;20419;-87
2023/04/03 05:18:13;;;;;;;10.15;4.85;;;;;;;-1.18;100.00;103092.97;5075355;28;20052;-83
2023/04/03 05:20:38;;;;;;;8.90;4.70;;;;;;;-1.03;100.00;103117.81;5075358;28;20492;-86
2023/04/03 05:23:04;;;;;;;7.82;4.57;;;;;;;-1.02;100.00;103122.91;5075068;28;20025;-87
2023/04/03 05:25:29;;;;;;;8.80;4.85;;;;;;;-0.98;100.00;103124.69;5075274;28;20066;-83
2023/04/03 05:27:55;;;;;;;7.35;4.30;;;;;;;-1.06;100.00;103111.00;5075310;28;20056;-85
2023/04/03 05:30:20;;;;;;;8.82;3.88;;;;;;;-0.97;100.00;103123.88;5074840;28;20385;-85
2023/04/03 05:32:45;;;;;;;9.25;4.43;;;;;;;-0.94;100.00;103128.16;5075197;28;20082;-85
2023/04/03 05:35:11;;;;;;;8.77;4.45;;;;;;;-0.90;100.00;103122.31;5075164;28;20363;-86
2023/04/03 05:37:37;;;;;;;7.97;4.22;;;;;;;-0.98;100.00;103111.16;5075175;28;20032;-84
2023/04/03 05:40:04;;;;;;;8.73;4.20;;;;;;;-0.82;100.00;103133.47;5074508;28;20063;-85
2023/04/03 05:42:29;;;;;;;9.02;4.32;;;;;;;-0.83;100.00;103118.22;5074076;28;20115;-84
2023/04/03 05:44:55;;;;;;;7.80;4.05;;;;;;;-0.82;100.00;103122.47;5074974;28;20029;-85
2023/04/03 05:47:21;;;;;;;9.00;4.22;;;;;;;-0.64;100.00;103133.00;5073838;28;20029;-83
2023/04/03 05:49:46;;;;;;;9.05;4.72;;;;;;;-0.59;100.00;103134.81;5074596;28;20040;-81
2023/04/03 05:52:20;;;;;;;9.27;4.00;;;;;;;-0.84;100.00;103086.09;5075000;28;20033;-84
2023/04/03 05:59:56;;;;;;;9.00;3.55;;;;;;;-1.04;100.00;103051.03;6197493;22;20368;-78
2023/04/03 06:02:24;;;;;;;9.68;3.72;;;;;;;-0.36;100.00;103147.97;5093184;28;20097;-84
2023/04/03 06:04:50;;;;;;;11.15;3.78;;;;;;;-0.33;100.00;103152.22;5094718;28;20111;-84
2023/04/03 06:07:19;;;;;;;8.30;3.75;;;;;;;-0.54;100.00;103101.91;5109513;28;20454;-82
2023/04/03 06:09:44;;;;;;;5.80;3.28;;;;;;;-0.22;100.00;103155.84;5094820;28;20054;-83
2023/04/03 06:12:11;;;;;;;9.27;3.63;;;;;;;-0.16;100.00;103160.19;5095980;28;20396;-73
2023/04/03 06:14:36;;;;;;;10.27;4.15;;;;;;;-0.51;100.00;103096.88;5094516;28;20047;-73
2023/04/03 06:17:02;;;;;;;8.80;3.53;;;;;;;-0.03;100.00;103160.44;5094662;28;20024;-75
2023/04/03 06:19:28;;;;;;;8.05;3.83;;;;;;;0.11;100.00;103140.38;5094397;28;20028;-74
2023/04/03 06:21:53;;;;;;;7.82;3.47;;;;;;;0.57;100.00;103156.34;5091877;28;20072;-73
2023/04/03 06:24:19;;;;;;;7.00;3.40;;;;;;;0.71;100.00;103143.88;5095506;28;20100;-73
2023/04/03 06:26:45;;;;;;;11.27;3.97;;;;;;;1.17;100.00;103147.03;5094825;28;20046;-72
2023/04/03 06:29:10;;;;;;;6.45;3.55;;;;;;;1.97;100.00;103140.38;5094347;28;20461;-73
2023/04/03 06:31:36;;;;;;;6.93;2.70;;;;;;;3.42;95.11;103163.47;5094529;28;20469;-75
2023/04/03 06:34:02;;;;;;;6.35;2.72;;;;;;;4.79;88.30;103166.22;5094313;28;20024;-74
2023/04/03 06:36:28;;;;;;;5.63;2.60;;;;;;;5.94;78.64;103163.25;5094463;28;20040;-75
2023/04/03 06:38:54;;;;;;;6.82;2.72;;;;;;;6.27;73.40;103145.06;5094265;28;20358;-74
2023/04/03 06:41:19;;;;;;;6.88;2.60;;;;;;;6.67;70.85;103128.44;5094466;28;20027;-74
2023/04/03 06:43:45;;;;;;;5.43;2.05;;;;;;;7.38;69.68;103163.63;5092912;28;20020;-75
2023/04/03 06:46:22;;;;;;;7.57;2.17;;;;;;;7.58;69.80;103144.53;5093926;28;20078;-73
2023/04/03 06:48:48;;;;;;;5.93;2.10;;;;;;;8.29;64.88;103166.63;5092605;28;20020;-74
2023/04/03 06:51:25;;;;;;;5.75;2.45;;;;;;;8.70;63.35;103134.19;5093978;28;20024;-72
2023/04/03 06:53:52;;;;;;;5.15;1.80;;;;;;;8.53;58.51;103137.06;5093969;28;20460;-73
2023/04/03 06:56:19;;;;;;;5.50;2.03;;;;;;;8.29;59.15;103176.94;5093828;28;20377;-74
2023/04/03 06:58:45;;;;;;;5.38;1.85;;;;;;;8.47;58.77;103185.28;5093939;28;20031;-75
2023/04/03 07:01:11;;;;;;;5.75;2.40;;;;;;;8.55;58.45;103178.25;5093455;28;20044;-75
2023/04/03 07:03:37;;;;;;;7.07;2.00;;;;;;;8.63;58.75;103169.50;5093851;28;20085;-75
2023/04/03 07:06:05;;;;;;;9.40;2.40;;;;;;;8.91;59.09;103176.75;5093672;28;20472;-77
2023/04/03 07:08:31;;;;;;;8.68;2.20;;;;;;;9.07;57.02;103154.97;5093408;28;20028;-76
2023/04/03 07:10:57;;;;;;;5.07;2.00;;;;;;;9.34;56.42;103173.34;5092658;28;20031;-77
2023/04/03 07:13:22;;;;;;;6.05;2.10;;;;;;;8.51;57.09;103184.31;5093774;28;20031;-75
2023/04/03 07:15:48;;;;;;;5.25;2.03;;;;;;;7.09;61.03;103188.81;5357990;22;20072;-76
2023/04/03 07:18:14;;;;;;;7.10;2.85;;;;;;;5.64;65.21;103175.34;5072666;28;20036;-78
2023/04/03 07:20:40;;;;;;;8.20;2.28;;;;;;;4.71;69.31;103185.84;5071845;28;20020;-76
2023/04/03 07:23:05;;;;;;;6.97;2.40;;;;;;;3.91;72.11;103190.03;5071862;28;20043;-77
2023/04/03 07:25:31;;;;;;;6.30;2.63;;;;;;;3.44;75.91;103193.31;5073325;28;20020;-77
2023/04/03 07:27:57;;;;;;;6.60;2.70;;;;;;;3.13;78.19;103199.06;5073534;28;20079;-76
2023/04/03 07:30:23;;;;;;;5.15;2.50;;;;;;;2.93;80.25;103204.03;5072726;28;20462;-76
2023/04/03 07:32:48;;;;;;;8.98;2.83;;;;;;;2.82;81.45;103210.78;5072974;28;20107;-78
2023/04/03 07:35:13;;;;;;;4.45;2.42;;;;;;;2.67;82.39;103197.91;5073100;28;20031;-78
2023/04/03 07:37:39;;;;;;;7.95;2.92;;;;;;;2.61;82.50;103200.41;5072973;28;20021;-76
2023/04/03 07:40:06;;;;;;;7.20;2.42;;;;;;;2.48;82.91;103179.06;5072736;28;20051;-77
2023/04/03 07:42:32;;;;;;;5.60;2.72;;;;;;;2.64;82.56;103208.94;5072938;28;20078;-79
2023/04/03 07:44:57;;;;;;;8.40;3.05;;;;;;;2.38;82.65;103172.16;5072891;28;20017;-83
2023/04/03 07:47:23;;;;;;;6.95;2.47;;;;;;;2.49;82.90;103179.06;5073005;28;20466;-88
2023/04/03 07:49:48;;;;;;;4.20;2.20;;;;;;;2.75;83.60;103214.09;5072862;28;20470;-82
2023/04/03 07:52:15;;;;;;;6.47;2.47;;;;;;;2.81;84.74;103211.63;5072851;28;20405;-85
2023/04/03 07:54:41;;;;;;;7.95;2.53;;;;;;;2.86;83.00;103212.53;5072721;28;20033;-83
2023/04/03 07:57:06;;;;;;;7.35;2.92;;;;;;;2.96;85.68;103214.28;5072722;28;20031;-82
2023/04/03 07:59:32;;;;;;;6.70;2.72;;;;;;;2.80;82.56;103185.25;5071861;28;20047;-82
2023/04/03 08:01:57;;;;;;;7.50;2.67;;;;;;;3.02;82.71;103216.00;5071710;28;20036;-88
2023/04/03 08:04:22;;;;;;;7.38;2.75;;;;;;;3.11;84.66;103216.06;5070788;28;20103;-82
2023/04/03 08:06:48;;;;;;;7.75;2.45;;;;;;;3.20;83.88;103213.59;5072695;28;20473;-84
2023/04/03 08:09:15;;;;;;;7.13;2.42;;;;;;;3.22;80.88;103211.03;5072570;28;20533;-79
2023/04/03 08:11:40;;;;;;;6.70;2.35;;;;;;;2.90;77.44;103158.09;5072680;28;20024;-87
2023/04/03 08:14:06;;;;;;;7.35;2.80;;;;;;;3.11;79.10;103201.63;5072633;28;20070;-78
2023/04/03 08:16:31;;;;;;;7.43;2.40;;;;;;;3.27;77.52;103217.88;5071339;28;20047;-90
2023/04/03 08:18:57;;;;;;;5.97;2.50;;;;;;;3.36;78.93;103214.53;5072044;28;20493;-81
2023/04/03 08:21:22;;;;;;;6.60;2.30;;;;;;;3.41;75.07;103220.50;5062802;28;20089;-88
2023/04/03 08:23:52;;;;;;;7.15;2.05;;;;;;;3.40;76.67;103213.69;5070081;28;20024;-85
2023/04/03 08:26:21;;;;;;;5.43;2.28;;;;;;;3.48;73.77;103216.28;5068863;28;20025;-83
2023/04/03 08:28:47;;;;;;;6.15;2.25;;;;;;;3.52;73.30;103221.41;5059409;28;20074;-78
2023/04/03 08:31:18;;;;;;;5.65;2.28;;;;;;;3.35;73.78;103185.59;5059780;28;20036;-80
2023/04/03 08:33:43;;;;;;;5.43;1.80;;;;;;;3.58;72.96;103218.91;5061124;28;20016;-88
2023/04/03 08:36:19;;;;;;;5.25;1.95;;;;;;;3.62;71.90;103224.84;5061865;28;20378;-86
2023/04/03 08:38:44;;;;;;;6.63;3.90;;;;;;;3.47;72.44;103186.50;5060523;28;20474;-82
2023/04/03 08:41:18;;;;;;;5.38;2.17;;;;;;;3.40;74.91;103153.25;5057717;28;20106;-84
2023/04/03 08:44:24;;;;;;;7.80;2.20;;;;;;;3.87;70.83;103225.81;5052263;28;20067;-85
2023/04/03 08:46:56;;;;;;;4.90;1.92;;;;;;;3.89;68.09;103219.84;5051587;28;20041;-81
2023/04/03 08:49:51;;;;;;;5.80;1.70;;;;;;;3.85;68.93;103210.50;5052251;28;20055;-79
2023/04/03 08:52:30;;;;;;;4.93;1.70;;;;;;;3.87;67.32;103205.38;5052156;28;20039;-84
2023/04/03 08:54:59;;;;;;;5.80;1.70;;;;;;;4.05;63.92;103225.88;5050911;28;20032;-82
2023/04/03 08:57:32;;;;;;;3.50;1.38;;;;;;;4.21;63.63;103239.53;5052118;28;20604;-82
2023/04/03 09:00:16;;;;;;;5.25;1.60;;;;;;;4.29;64.03;103235.28;5052372;28;20037;-84
2023/04/03 09:02:45;;;;;;;3.50;1.83;;;;;;;4.38;62.09;103239.56;5052116;28;20021;-80
2023/04/03 09:05:20;;;;;;;4.85;1.65;;;;;;;4.40;60.67;103231.03;5051902;28;20033;-82
2023/04/03 09:07:50;;;;;;;2.92;1.20;;;;;;;4.51;58.58;103242.13;5051844;28;20024;-82
2023/04/03 09:10:24;;;;;;;3.83;1.10;;;;;;;4.44;56.43;103216.56;5052014;28;20053;-82
2023/04/03 09:12:59;;;;;;;2.30;1.10;;;;;;;4.54;55.88;103241.31;5052112;28;20029;-85
2023/04/03 09:15:25;;;;;;;4.00;1.60;;;;;;;4.52;53.29;103246.44;5052983;28;20132;-79
2023/04/03 09:18:05;;;;;;;4.20;1.40;;;;;;;4.55;56.18;103233.63;5055653;28;20064;-86
2023/04/03 09:20:45;;;;;;;3.65;1.10;;;;;;;4.67;54.19;103239.59;5054290;28;20029;-89
2023/04/03 09:23:34;;;;;;;2.83;1.25;;;;;;;4.73;53.53;103243.03;5055461;28;20100;-76
2023/04/03 09:26:06;;;;;;;3.58;1.38;;;;;;;4.91;55.11;103249.81;5055069;28;20452;-76
2023/04/03 09:28:38;;;;;;;4.07;1.20;;;;;;;4.78;48.27;103213.16;5055641;28;20040;-77
2023/04/03 09:31:18;;;;;;;2.30;1.02;;;;;;;4.93;48.84;103242.16;5059415;28;20044;-76
2023/04/03 09:33:45;;;;;;;3.72;1.42;;;;;;;4.91;46.59;103242.16;5075266;28;20028;-78
2023/04/03 09:36:10;;;;;;;2.80;1.40;;;;;;;4.88;45.92;103242.16;5075371;28;20024;-76
2023/04/03 09:38:36;;;;;;;5.07;1.75;;;;;;;4.81;45.29;103223.38;5075353;28;20025;-77
2023/04/03 09:41:02;;;;;;;3.00;1.02;;;;;;;4.93;45.71;103239.59;5075180;28;20036;-77
2023/04/03 09:43:32;;;;;;;3.55;1.23;;;;;;;4.95;46.46;103225.09;5075392;28;20029;-77
2023/04/03 09:46:31;;;;;;;3.15;1.20;;;;;;;4.96;50.31;103208.88;5075068;28;20351;-77
2023/04/03 09:48:59;;;;;;;2.25;1.02;;;;;;;5.11;47.44;103217.41;5073539;28;20041;-76
2023/04/03 09:51:27;;;;;;;3.80;1.55;;;;;;;5.16;43.97;103212.25;5074931;28;20021;-77
2023/04/03 09:53:53;;;;;;;3.30;1.00;;;;;;;5.14;46.46;103190.91;5074820;28;20045;-83
2023/04/03 09:56:21;;;;;;;3.20;1.10;;;;;;;5.25;47.74;103198.56;5074609;28;20063;-77
2023/04/03 09:59:00;;;;;;;2.83;0.90;;;;;;;5.23;45.41;103183.22;5073645;28;20490;-76
2023/04/03 10:01:33;;;;;;;3.10;1.10;;;;;;;5.39;44.36;103205.34;5074680;28;20058;-76
2023/04/03 10:04:19;;;;;;;3.10;1.17;;;;;;;5.32;45.71;103190.88;5074823;28;20047;-76
2023/04/03 10:06:47;;;;;;;2.38;1.00;;;;;;;5.50;42.42;103200.16;5066513;28;20517;-76
2023/04/03 10:09:28;;;;;;;2.67;1.00;;;;;;;5.22;41.66;103168.69;5055664;28;20066;-77
2023/04/03 10:12:01;;;;;;;2.35;0.68;;;;;;;5.01;42.38;103123.50;5056878;28;20024;-77
2023/04/03 10:14:29;;;;;;;2.40;0.90;;;;;;;5.46;41.80;103185.69;5054566;28;20470;-76
2023/04/03 10:17:03;;;;;;;2.40;0.85;;;;;;;5.61;40.29;103203.56;5054294;28;20095;-76
2023/04/03 10:19:50;;;;;;;0.90;0.60;;;;;;;5.65;41.25;103201.84;5054445;28;20079;-75
2023/04/03 10:22:19;;;;;;;1.17;0.70;;;;;;;5.67;39.89;103215.50;5054546;28;20029;-78
2023/04/03 10:25:26;;;;;;;2.80;1.10;;;;;;;5.47;40.41;103170.28;5054285;28;20095;-77
2023/04/03 10:28:06;;;;;;;2.28;0.70;;;;;;;5.74;40.17;103186.41;5053104;28;20020;-77
2023/04/03 10:30:31;;;;;;;1.98;0.60;;;;;;;5.80;39.89;103176.13;5054531;28;20029;-76
2023/04/03 10:33:21;;;;;;;1.88;0.90;;;;;;;5.57;41.68;103130.09;5052698;28;20481;-76
2023/04/03 10:35:56;;;;;;;2.58;0.80;;;;;;;6.02;42.97;103176.88;5054205;28;20118;-76
2023/04/03 10:38:42;;;;;;;2.80;1.17;;;;;;;5.96;38.84;103139.28;5053879;28;20037;-76
2023/04/03 10:41:11;;;;;;;0.65;0.50;;;;;;;6.13;38.70;103167.41;5069654;28;20039;-76
2023/04/03 10:43:53;;;;;;;3.53;0.65;;;;;;;6.16;39.67;103153.69;5053951;28;20036;-77
2023/04/03 10:46:26;;;;;;;1.83;0.60;;;;;;;6.19;40.66;103158.78;5053836;28;20029;-77
2023/04/03 10:49:10;;;;;;;3.63;0.82;;;;;;;6.24;38.63;103167.31;5053731;28;20041;-76
2023/04/03 10:51:48;;;;;;;2.03;0.70;;;;;;;6.26;40.50;103155.34;5053863;28;20033;-76
2023/04/03 10:54:22;;;;;;;2.75;1.40;;;;;;;6.21;38.25;103150.25;5053880;28;20106;-76
2023/04/03 10:56:52;;;;;;;3.75;0.90;;;;;;;6.14;37.44;103156.28;5053773;28;20025;-76
2023/04/03 10:59:41;;;;;;;3.30;0.80;;;;;;;5.95;38.13;103129.06;5053408;28;20033;-76
2023/04/03 11:02:37;;;;;;;2.78;1.20;;;;;;;6.13;38.54;103151.16;5053758;28;20083;-77
2023/04/03 11:05:17;;;;;;;2.17;0.80;;;;;;;6.17;39.46;103157.97;5052634;28;20041;-75
2023/04/03 11:07:48;;;;;;;2.80;0.80;;;;;;;5.98;40.00;103117.06;5053494;28;20048;-76
2023/04/03 11:10:35;;;;;;;2.95;0.90;;;;;;;6.23;40.67;103145.94;5053712;28;20025;-77
2023/04/03 11:13:17;;;;;;;3.47;0.98;;;;;;;6.11;39.35;103110.13;5060640;28;20024;-75
2023/04/03 11:15:45;;;;;;;3.03;0.90;;;;;;;6.26;37.13;103145.06;5072943;28;20505;-76
2023/04/03 11:18:15;;;;;;;2.70;0.90;;;;;;;6.24;38.63;103136.53;5073020;28;20620;-75
2023/04/03 11:20:49;;;;;;;2.25;0.80;;;;;;;6.20;39.72;103135.72;5073267;28;20085;-76
2023/04/03 11:23:28;;;;;;;1.83;0.88;;;;;;;6.27;40.80;103131.38;5073297;28;20048;-75
2023/04/03 11:26:01;;;;;;;2.22;0.80;;;;;;;6.37;42.50;103122.72;5072998;28;20474;-76
2023/04/03 11:28:26;;;;;;;2.20;0.90;;;;;;;6.46;40.14;103117.50;5073016;28;20032;-78
2023/04/03 11:31:00;;;;;;;1.63;0.77;;;;;;;6.53;40.23;103124.31;5073188;28;20549;-87
2023/04/03 11:34:00;;;;;;;2.75;1.00;;;;;;;6.61;39.79;103125.09;5073700;28;20028;-88